createdAt,value
2024-05-09T00:03:20.727Z,8.39
2024-05-09T00:07:23.537Z,8.34
2024-05-09T00:11:26.543Z,8.23
2024-05-09T00:15:30.781Z,8.09
2024-05-09T00:19:33.854Z,8.04
2024-05-09T00:23:37.046Z,7.87
2024-05-09T00:27:41.508Z,7.70
2024-05-09T00:31:44.309Z,7.65
2024-05-09T00:35:46.998Z,7.56
2024-05-09T00:39:49.802Z,7.53
2024-05-09T00:43:52.525Z,7.52
2024-05-09T00:47:55.684Z,7.52
2024-05-09T00:51:58.868Z,7.48
2024-05-09T00:56:01.791Z,7.36
2024-05-09T01:00:07.802Z,7.30
2024-05-09T01:04:13.765Z,7.27
2024-05-09T01:08:16.771Z,7.24
2024-05-09T01:12:19.772Z,7.21
2024-05-09T01:16:22.677Z,7.19
2024-05-09T01:20:36.600Z,7.15
2024-05-09T01:24:44.146Z,7.04
2024-05-09T01:28:46.914Z,6.93
2024-05-09T01:32:49.959Z,6.80
2024-05-09T01:36:53.004Z,6.76
2024-05-09T01:40:56.066Z,6.67
2024-05-09T01:44:58.941Z,6.60
2024-05-09T01:49:01.917Z,6.58
2024-05-09T01:53:04.867Z,6.60
2024-05-09T01:57:07.648Z,6.60
2024-05-09T02:01:10.423Z,6.62
2024-05-09T02:05:13.361Z,6.71
2024-05-09T02:09:16.208Z,6.80
2024-05-09T02:13:18.947Z,6.83
2024-05-09T02:17:21.791Z,6.79
2024-05-09T02:21:24.606Z,6.75
2024-05-09T02:25:27.586Z,6.67
2024-05-09T02:29:30.574Z,6.64
2024-05-09T02:33:33.624Z,6.58
2024-05-09T02:37:36.893Z,6.42
2024-05-09T02:41:39.638Z,6.36
2024-05-09T02:45:42.379Z,6.32
2024-05-09T02:49:45.484Z,6.27
2024-05-09T02:53:48.271Z,6.26
2024-05-09T02:57:51.278Z,6.22
2024-05-09T03:01:54.301Z,6.22
2024-05-09T03:05:57.000Z,6.21
2024-05-09T03:09:59.697Z,6.23
2024-05-09T03:14:02.546Z,6.21
2024-05-09T03:18:06.409Z,6.17
2024-05-09T03:22:09.851Z,6.06
2024-05-09T03:26:13.378Z,5.99
2024-05-09T03:30:28.813Z,6.02
2024-05-09T03:34:41.573Z,6.03
2024-05-09T03:38:44.576Z,6.08
2024-05-09T03:42:47.506Z,6.13
2024-05-09T03:46:50.281Z,6.18
2024-05-09T03:50:53.078Z,6.26
2024-05-09T03:54:55.812Z,6.32
2024-05-09T03:58:58.568Z,6.52
2024-05-09T04:03:01.799Z,7.13
2024-05-09T04:07:05.004Z,8.11
2024-05-09T04:15:13.403Z,10.35
2024-05-09T04:19:16.696Z,11.46
2024-05-09T04:23:19.641Z,12.46
2024-05-09T04:27:22.377Z,13.46
2024-05-09T04:31:25.092Z,14.27
2024-05-09T04:35:27.999Z,14.63
2024-05-09T04:39:30.934Z,14.57
2024-05-09T04:43:35.158Z,14.56
2024-05-09T04:47:42.041Z,14.67
2024-05-09T04:51:45.107Z,14.81
2024-05-09T04:55:47.883Z,14.94
2024-05-09T04:59:50.763Z,15.21
2024-05-09T05:03:55.882Z,15.43
2024-05-09T05:07:59.190Z,15.74
2024-05-09T05:12:02.954Z,16.09
2024-05-09T05:16:05.915Z,16.07
2024-05-09T05:20:12.690Z,15.97
2024-05-09T05:24:17.822Z,16.21
2024-05-09T05:28:21.430Z,16.87
2024-05-09T05:32:24.771Z,17.30
2024-05-09T05:36:27.784Z,17.11
2024-05-09T05:40:36.529Z,17.24
2024-05-09T05:44:40.990Z,17.69
2024-05-09T05:48:43.707Z,18.18
2024-05-09T05:52:46.691Z,18.64
2024-05-09T05:56:49.440Z,18.88
2024-05-09T06:00:53.526Z,18.38
2024-05-09T06:04:56.719Z,18.24
2024-05-09T06:08:59.856Z,18.36
2024-05-09T06:13:02.520Z,18.62
2024-05-09T06:17:05.179Z,18.95
2024-05-09T06:21:08.146Z,19.16
2024-05-09T06:25:11.114Z,19.34
2024-05-09T06:29:14.153Z,19.18
2024-05-09T06:33:17.228Z,18.81
2024-05-09T06:37:20.179Z,19.11
2024-05-09T06:41:22.887Z,19.31
2024-05-09T06:45:25.658Z,18.98
2024-05-09T06:49:30.136Z,18.56
2024-05-09T06:53:33.147Z,18.11
2024-05-09T06:57:37.238Z,18.13
2024-05-09T07:01:41.299Z,18.44
2024-05-09T07:05:44.823Z,18.96
2024-05-09T07:09:47.855Z,19.56
2024-05-09T07:13:50.823Z,19.86
2024-05-09T07:17:53.817Z,19.95
2024-05-09T07:21:58.017Z,20.08
2024-05-09T07:26:00.848Z,19.95
2024-05-09T07:30:05.595Z,19.67
2024-05-09T07:34:11.812Z,19.92
2024-05-09T07:38:14.904Z,20.40
2024-05-09T07:42:17.928Z,20.48
2024-05-09T07:47:14.622Z,20.36
2024-05-09T07:54:49.296Z,20.61
2024-05-09T07:58:55.710Z,20.57
2024-05-09T08:02:58.675Z,20.47
2024-05-09T08:07:01.583Z,20.43
2024-05-09T08:11:06.576Z,20.21
2024-05-09T08:15:09.593Z,19.99
2024-05-09T08:19:12.801Z,19.93
2024-05-09T08:23:15.812Z,19.96
2024-05-09T08:27:18.557Z,19.76
2024-05-09T08:31:21.513Z,19.66
2024-05-09T08:35:24.379Z,19.68
2024-05-09T08:39:27.233Z,19.47
2024-05-09T08:43:30.827Z,19.47
2024-05-09T08:47:34.067Z,19.76
2024-05-09T08:51:37.219Z,19.85
2024-05-09T08:55:43.186Z,19.65
2024-05-09T08:59:50.824Z,19.74
2024-05-09T09:03:55.257Z,19.89
2024-05-09T09:07:58.164Z,19.95
2024-05-09T09:12:01.127Z,19.91
2024-05-09T09:16:04.377Z,19.88
2024-05-09T09:20:14.122Z,19.67
2024-05-09T09:24:19.337Z,19.64
2024-05-09T09:28:23.300Z,19.66
2024-05-09T09:32:28.974Z,19.79
2024-05-09T09:36:31.942Z,19.98
2024-05-09T09:40:40.748Z,19.99
2024-05-09T09:44:58.001Z,20.01
2024-05-09T09:49:08.416Z,19.78
2024-05-09T09:53:12.572Z,19.55
2024-05-09T09:57:16.125Z,19.58
2024-05-09T10:01:19.021Z,19.71
2024-05-09T10:05:23.393Z,19.88
2024-05-09T10:09:26.502Z,19.86
2024-05-09T10:13:35.257Z,19.95
2024-05-09T10:17:38.597Z,19.82
2024-05-09T10:21:47.088Z,19.79
2024-05-09T10:25:57.121Z,19.89
2024-05-09T10:30:07.014Z,19.80
2024-05-09T10:34:22.194Z,19.91
2024-05-09T10:38:26.356Z,19.84
2024-05-09T10:42:29.620Z,19.69
2024-05-09T10:46:32.523Z,19.71
2024-05-09T10:50:35.312Z,19.88
2024-05-09T10:54:39.573Z,20.13
2024-05-09T10:58:42.554Z,20.26
2024-05-09T11:02:48.320Z,20.47
2024-05-09T11:06:51.246Z,20.65
2024-05-09T11:10:55.384Z,20.69
2024-05-09T11:14:58.340Z,20.76
2024-05-09T11:19:01.254Z,20.78
2024-05-09T11:23:05.747Z,20.67
2024-05-09T11:27:08.595Z,20.53
2024-05-09T11:31:11.675Z,20.52
2024-05-09T11:35:14.526Z,20.49
2024-05-09T11:39:17.515Z,20.44
2024-05-09T11:43:21.055Z,20.53
2024-05-09T11:47:24.620Z,20.65
2024-05-09T11:51:27.678Z,20.94
2024-05-09T11:55:31.033Z,21.19
2024-05-09T11:59:33.885Z,21.47
2024-05-09T12:03:37.793Z,21.40
2024-05-09T12:07:43.391Z,21.47
2024-05-09T12:11:46.393Z,21.49
2024-05-09T12:15:49.279Z,21.42
2024-05-09T12:19:52.790Z,21.36
2024-05-09T12:23:55.675Z,21.30
2024-05-09T12:27:58.643Z,21.19
2024-05-09T12:32:01.557Z,21.20
2024-05-09T12:36:04.645Z,21.20
2024-05-09T12:40:15.823Z,21.30
2024-05-09T12:55:12.174Z,21.41
2024-05-09T12:59:16.600Z,21.33
2024-05-09T13:03:22.168Z,21.43
2024-05-09T13:07:28.685Z,21.51
2024-05-09T13:12:01.859Z,21.77
2024-05-09T13:16:05.642Z,22.15
2024-05-09T13:20:36.306Z,22.16
2024-05-09T13:24:40.894Z,22.15
2024-05-09T13:28:43.945Z,22.26
2024-05-09T13:32:47.678Z,22.24
2024-05-09T13:36:50.898Z,22.21
2024-05-09T13:40:55.231Z,22.24
2024-05-09T13:44:58.503Z,22.08
2024-05-09T13:49:03.134Z,21.84
2024-05-09T13:53:07.701Z,21.48
2024-05-09T13:57:12.092Z,21.55
2024-05-09T14:02:15.283Z,21.47
2024-05-09T14:06:18.667Z,21.29
2024-05-09T14:10:28.658Z,21.12
2024-05-09T14:14:37.599Z,20.96
2024-05-09T14:18:41.465Z,21.15
2024-05-09T14:22:45.759Z,21.30
2024-05-09T14:27:19.092Z,21.24
2024-05-09T14:31:24.450Z,21.17
2024-05-09T14:35:28.960Z,21.17
2024-05-09T14:39:31.963Z,21.17
2024-05-09T14:43:36.344Z,21.22
2024-05-09T14:47:39.563Z,21.28
2024-05-09T14:51:48.550Z,21.33
2024-05-09T14:55:51.601Z,21.26
2024-05-09T15:00:29.630Z,21.27
2024-05-09T15:04:38.941Z,21.21
2024-05-09T15:08:56.722Z,21.10
2024-05-09T15:12:59.865Z,20.99
2024-05-09T15:17:03.985Z,20.94
2024-05-09T15:21:07.458Z,21.00
2024-05-09T15:25:11.276Z,21.08
2024-05-09T15:29:14.513Z,21.11
2024-05-09T15:33:19.392Z,21.10
2024-05-09T15:37:23.665Z,21.08
2024-05-09T15:41:29.602Z,20.98
2024-05-09T15:45:32.656Z,20.94
2024-05-09T15:49:35.865Z,20.90
2024-05-09T15:53:39.133Z,20.78
2024-05-09T15:57:42.129Z,20.72
2024-05-09T16:01:48.750Z,20.72
2024-05-09T16:05:52.139Z,20.67
2024-05-09T16:09:55.849Z,20.65
2024-05-09T16:13:58.916Z,20.57
2024-05-09T16:18:05.001Z,20.55
2024-05-09T16:22:08.067Z,20.48
2024-05-09T16:26:17.335Z,20.37
2024-05-09T16:30:27.884Z,20.28
2024-05-09T16:34:38.379Z,20.10
2024-05-09T16:38:42.942Z,19.93
2024-05-09T16:42:46.117Z,19.88
2024-05-09T16:46:49.097Z,19.82
2024-05-09T16:50:52.118Z,19.72
2024-05-09T16:54:55.088Z,19.61
2024-05-09T16:58:58.123Z,19.47
2024-05-09T17:03:01.044Z,19.36
2024-05-09T17:07:04.932Z,19.22
2024-05-09T17:11:07.939Z,19.04
2024-05-09T17:15:11.246Z,18.90
2024-05-09T17:19:14.157Z,18.75
2024-05-09T17:23:17.322Z,18.60
2024-05-09T17:27:20.210Z,18.50
2024-05-09T17:31:22.951Z,18.41
2024-05-09T17:35:25.862Z,18.33
2024-05-09T17:39:28.603Z,18.24
2024-05-09T17:43:31.454Z,18.14
2024-05-09T17:47:35.980Z,18.07
2024-05-09T17:51:38.931Z,17.97
2024-05-09T17:55:42.505Z,17.87
2024-05-09T17:59:45.652Z,17.75
2024-05-09T18:03:50.046Z,17.59
2024-05-09T18:07:55.418Z,17.40
2024-05-09T18:12:00.017Z,17.25
2024-05-09T18:16:02.868Z,17.08
2024-05-09T18:20:08.948Z,16.96
2024-05-09T18:24:11.987Z,16.83
2024-05-09T18:28:15.572Z,16.67
2024-05-09T18:32:18.717Z,16.45
2024-05-09T18:36:21.811Z,16.22
2024-05-09T18:40:32.783Z,15.98
2024-05-09T18:44:38.798Z,15.74
2024-05-09T18:48:41.855Z,15.59
2024-05-09T18:52:44.906Z,15.44
2024-05-09T18:56:47.713Z,15.25
2024-05-09T19:00:53.273Z,15.08
2024-05-09T19:04:58.002Z,14.94
2024-05-09T19:09:00.857Z,14.83
2024-05-09T19:13:09.343Z,14.75
2024-05-09T19:17:15.494Z,14.67
2024-05-09T19:21:18.349Z,14.63
2024-05-09T19:25:21.064Z,14.57
2024-05-09T19:29:24.060Z,14.52
2024-05-09T19:33:26.853Z,14.46
2024-05-09T19:37:31.543Z,14.38
2024-05-09T19:41:34.302Z,14.30
2024-05-09T19:45:37.300Z,14.21
2024-05-09T19:49:40.469Z,14.11
2024-05-09T19:53:43.473Z,14.04
2024-05-09T19:57:46.619Z,13.96
2024-05-09T20:01:49.661Z,13.93
2024-05-09T20:05:52.663Z,13.89
2024-05-09T20:09:55.534Z,13.87
2024-05-09T20:13:59.689Z,13.75
2024-05-09T20:18:04.075Z,13.59
2024-05-09T20:22:07.230Z,13.39
2024-05-09T20:26:10.704Z,13.20
2024-05-09T20:30:20.911Z,12.99
2024-05-09T20:34:28.379Z,12.78
2024-05-09T20:38:31.388Z,12.57
2024-05-09T20:42:34.259Z,12.38
2024-05-09T20:46:37.026Z,12.21
2024-05-09T20:50:42.530Z,12.07
2024-05-09T20:54:46.406Z,11.95
2024-05-09T20:58:49.326Z,11.80
2024-05-09T21:02:52.203Z,11.62
2024-05-09T21:06:55.131Z,11.46
2024-05-09T21:10:58.046Z,11.32
2024-05-09T21:15:00.904Z,11.16
2024-05-09T21:19:03.884Z,11.03
2024-05-09T21:23:06.772Z,10.91
2024-05-09T21:27:09.654Z,10.81
2024-05-09T21:31:12.533Z,10.73
2024-05-09T21:35:15.436Z,10.62
2024-05-09T21:39:18.327Z,10.54
2024-05-09T21:43:21.319Z,10.50
2024-05-09T21:47:24.640Z,10.44
2024-05-09T21:51:27.410Z,10.38
2024-05-09T21:55:30.294Z,10.32
2024-05-09T21:59:33.123Z,10.16
2024-05-09T22:03:36.215Z,9.96
2024-05-09T22:07:40.335Z,9.81
2024-05-09T22:11:43.146Z,9.73
2024-05-09T22:15:45.946Z,9.69
2024-05-09T22:19:49.582Z,9.63
2024-05-09T22:23:52.387Z,9.50
2024-05-09T22:27:55.208Z,9.42
2024-05-09T22:31:58.031Z,9.38
2024-05-09T22:36:00.741Z,9.32
2024-05-09T22:40:06.801Z,9.27
2024-05-09T22:44:10.013Z,9.24
2024-05-09T22:48:13.118Z,9.19
2024-05-09T22:52:16.154Z,9.13
2024-05-09T22:56:29.208Z,9.13
2024-05-09T23:00:33.250Z,9.13
2024-05-09T23:04:38.391Z,9.03
2024-05-09T23:08:41.328Z,8.94
2024-05-09T23:12:44.144Z,8.89
2024-05-09T23:16:46.989Z,8.81
2024-05-09T23:20:49.993Z,8.70
2024-05-09T23:24:52.751Z,8.59
2024-05-09T23:28:55.514Z,8.49
2024-05-09T23:32:58.443Z,8.43
2024-05-09T23:37:01.413Z,8.40
2024-05-09T23:41:06.132Z,8.40
2024-05-09T23:45:09.050Z,8.43
2024-05-09T23:49:12.156Z,8.42
2024-05-09T23:53:15.057Z,8.41
2024-05-09T23:57:17.816Z,8.43
